createdAt,value
2024-04-18T00:08:46.656Z,94.37
2024-04-18T00:19:26.069Z,94.7
2024-04-18T00:24:45.079Z,94.8
2024-04-18T00:35:24.093Z,95.26
2024-04-18T00:51:21.702Z,95.71
2024-04-18T01:01:59.480Z,95.89
2024-04-18T01:07:19.012Z,95.89
2024-04-18T01:17:57.770Z,96.11
2024-04-18T01:23:16.646Z,96.18
2024-04-18T01:33:54.934Z,96.12
2024-04-18T01:44:33.397Z,96.2
2024-04-18T01:49:53.392Z,96.22
2024-04-18T02:00:30.915Z,96.33
2024-04-18T02:16:29.857Z,96.11
2024-04-18T02:27:07.670Z,95.97
2024-04-18T02:37:47.537Z,96.17
2024-04-18T02:43:06.435Z,96.23
2024-04-18T02:48:25.297Z,96.21
2024-04-18T02:53:44.843Z,95.86
2024-04-18T03:04:23.337Z,95
2024-04-18T03:09:41.504Z,94.83
2024-04-18T03:20:19.964Z,94.57
2024-04-18T03:25:39.571Z,94.61
2024-04-18T03:36:19.199Z,94.37
2024-04-18T03:46:56.804Z,94.3
2024-04-18T03:52:15.715Z,94.64
2024-04-18T04:02:54.645Z,95.54
2024-04-18T04:08:13.780Z,95.86
2024-04-18T04:18:52.893Z,96.03
2024-04-18T04:29:30.486Z,96.27
2024-04-18T04:34:49.510Z,96.33
2024-04-18T04:45:28.705Z,96.47
2024-04-18T04:50:48.223Z,96.42
2024-04-18T05:01:26.726Z,96.53
2024-04-18T05:17:24.224Z,96.64
2024-04-18T05:28:02.923Z,96.73
2024-04-18T05:33:23.200Z,96.78
2024-04-18T05:44:00.578Z,96.64
2024-04-18T05:59:58.118Z,96.35
2024-04-18T06:10:36.666Z,95.61
2024-04-18T06:15:56.983Z,94.71
2024-04-18T06:26:34.657Z,94.16
2024-04-18T06:31:54.168Z,93.96
2024-04-18T06:37:14.316Z,93.37
2024-04-18T06:42:32.575Z,93.59
2024-04-18T06:53:11.199Z,92.96
2024-04-18T06:58:30.853Z,92.27
2024-04-18T07:09:10.301Z,91.55
2024-04-18T07:14:28.670Z,90.85
2024-04-18T07:19:48.336Z,91.29
2024-04-18T07:25:07.295Z,91.27
2024-04-18T07:41:05.793Z,91.14
2024-04-18T07:51:45.073Z,90.48
2024-04-18T07:57:05.142Z,89.65
2024-04-18T08:18:21.358Z,88.16
2024-04-18T08:23:40.600Z,87.99
2024-04-18T08:34:19.683Z,87.18
2024-04-18T08:39:38.346Z,87.58
2024-04-18T08:50:17.289Z,84.44
2024-04-18T08:55:36.956Z,82.48
2024-04-18T09:00:56.475Z,82.24
2024-04-18T09:06:15.713Z,80.62
2024-04-18T09:16:54.607Z,80.94
2024-04-18T09:27:33.891Z,81.67
2024-04-18T09:32:53.644Z,79.9
2024-04-18T09:43:31.275Z,79.69
2024-04-18T09:54:10.191Z,82.08
2024-04-18T09:59:30.077Z,82.19
2024-04-18T10:10:40.104Z,80.46
2024-04-18T10:15:59.790Z,82.26
2024-04-18T10:26:38.371Z,82.5
2024-04-18T10:31:58.745Z,77.15
2024-04-18T10:42:36.169Z,73.99
2024-04-18T10:47:55.216Z,74.78
2024-04-18T10:59:49.427Z,82.39
2024-04-18T11:09:14.546Z,85.35
2024-04-18T11:14:34.034Z,86.33
2024-04-18T11:25:11.534Z,89.48
2024-04-18T11:30:31.112Z,88.22
2024-04-18T11:41:09.538Z,85.09
2024-04-18T11:46:28.707Z,82.93
2024-04-18T11:57:06.759Z,77.49
2024-04-18T12:07:44.953Z,84.07
2024-04-18T12:13:03.839Z,86.67
2024-04-18T12:23:42.373Z,85.61
2024-04-18T12:29:01.935Z,85.81
2024-04-18T12:39:40.445Z,78.83
2024-04-18T12:44:59.904Z,71.16
2024-04-18T12:55:38.914Z,67.98
2024-04-18T13:06:18.286Z,65.49
2024-04-18T13:11:36.505Z,60.25
2024-04-18T13:22:14.485Z,57.07
2024-04-18T13:27:34.406Z,58.09
2024-04-18T13:32:53.337Z,58.35
2024-04-18T13:38:11.755Z,58.92
2024-04-18T13:48:50.631Z,54.27
2024-04-18T13:54:08.995Z,57.1
2024-04-18T14:04:48.280Z,54.28
2024-04-18T14:10:07.507Z,53.35
2024-04-18T14:20:46.510Z,49.5
2024-04-18T14:26:05.598Z,49.94
2024-04-18T14:36:43.771Z,51.67
2024-04-18T14:47:22.613Z,56.43
2024-04-18T14:52:41.392Z,58.08
2024-04-18T15:03:19.833Z,70.08
2024-04-18T15:13:57.397Z,85.65
2024-04-18T15:19:16.642Z,87.89
2024-04-18T15:29:55.521Z,90.9
2024-04-18T15:35:15.183Z,91.38
2024-04-18T15:45:54.169Z,74.89
2024-04-18T15:51:13.604Z,74.46
2024-04-18T16:01:52.294Z,70.36
2024-04-18T16:07:11.571Z,71.17
2024-04-18T16:12:30.345Z,74.57
2024-04-18T16:23:09.519Z,78.62
2024-04-18T16:28:28.533Z,80.07
2024-04-18T16:39:10.045Z,82.4
2024-04-18T16:49:45.599Z,79.01
2024-04-18T16:55:05.288Z,82.15
2024-04-18T17:05:44.027Z,78.29
2024-04-18T17:11:03.172Z,77.44
2024-04-18T17:21:41.838Z,75.56
2024-04-18T17:27:00.545Z,73.42
2024-04-18T17:32:20.180Z,75.04
2024-04-18T17:37:39.713Z,75.06
2024-04-18T17:48:17.742Z,76.12
2024-04-18T17:53:37.458Z,76.83
2024-04-18T18:04:15.434Z,79.82
2024-04-18T18:09:34.114Z,81.44
2024-04-18T18:14:53.234Z,82.12
2024-04-18T18:20:13.086Z,82.09
2024-04-18T18:30:51.368Z,80.48
2024-04-18T18:36:19.150Z,79.62
2024-04-18T18:46:48.692Z,81.96
2024-04-18T18:52:08.000Z,82.18
2024-04-18T18:57:26.851Z,83.89
2024-04-18T19:02:46.027Z,86.8
2024-04-18T19:13:24.449Z,89.55
2024-04-18T19:18:43.405Z,88.69
2024-04-18T19:29:26.984Z,90.54
2024-04-18T19:34:40.365Z,89.95
2024-04-18T19:45:18.919Z,88.63
2024-04-18T19:55:57.257Z,87.42
2024-04-18T20:01:16.953Z,87
2024-04-18T20:11:55.570Z,87.55
2024-04-18T20:17:15.264Z,87.98
2024-04-18T20:27:53.252Z,90.19
2024-04-18T20:33:12.874Z,89.44
2024-04-18T20:38:31.948Z,89.77
2024-04-18T20:43:50.983Z,90.65
2024-04-18T20:54:30.171Z,92.23
2024-04-18T20:59:48.888Z,93.17
2024-04-18T21:10:27.250Z,91.94
2024-04-18T21:15:46.942Z,90.03
2024-04-18T21:21:05.540Z,90.14
2024-04-18T21:26:25.126Z,90.01
2024-04-18T21:37:04.008Z,88.78
2024-04-18T21:42:23.328Z,87.89
2024-04-18T21:53:02.160Z,85.94
2024-04-18T22:08:59.301Z,84.68
2024-04-18T22:19:38.997Z,85.64
2024-04-18T22:24:58.072Z,85.45
2024-04-18T22:35:37.150Z,85.95
2024-04-18T22:40:56.561Z,86.63
2024-04-18T22:56:55.518Z,87.09
2024-04-18T23:12:52.130Z,87.45
2024-04-18T23:18:11.502Z,87.32
2024-04-18T23:28:49.978Z,87.35
2024-04-18T23:44:47.641Z,88.11
2024-04-18T23:55:27.553Z,88.25
